sensor_id;sensor_type;location;lat;lon;timestamp;temperature;humidity
62363;DHT22;48396;48.426;1.500;2022-11-23T00:00:23;10.30;97.30
62363;DHT22;48396;48.426;1.500;2022-11-23T00:02:53;10.30;97.30
62363;DHT22;48396;48.426;1.500;2022-11-23T00:05:19;10.20;97.50
62363;DHT22;48396;48.426;1.500;2022-11-23T00:07:45;10.10;97.50
62363;DHT22;48396;48.426;1.500;2022-11-23T00:10:11;10.20;97.40
62363;DHT22;48396;48.426;1.500;2022-11-23T00:12:37;10.20;97.40
62363;DHT22;48396;48.426;1.500;2022-11-23T00:15:04;10.30;97.30
62363;DHT22;48396;48.426;1.500;2022-11-23T00:17:30;10.20;97.50
62363;DHT22;48396;48.426;1.500;2022-11-23T00:19:55;10.00;97.80
62363;DHT22;48396;48.426;1.500;2022-11-23T00:22:21;10.10;97.80
62363;DHT22;48396;48.426;1.500;2022-11-23T00:24:47;10.10;97.70
62363;DHT22;48396;48.426;1.500;2022-11-23T00:27:13;10.00;97.90
62363;DHT22;48396;48.426;1.500;2022-11-23T00:29:39;10.10;97.80
62363;DHT22;48396;48.426;1.500;2022-11-23T00:32:04;10.10;97.70
62363;DHT22;48396;48.426;1.500;2022-11-23T00:34:30;10.10;97.70
62363;DHT22;48396;48.426;1.500;2022-11-23T00:36:56;10.20;97.70
62363;DHT22;48396;48.426;1.500;2022-11-23T00:39:22;10.20;97.50
62363;DHT22;48396;48.426;1.500;2022-11-23T00:41:47;10.00;97.90
62363;DHT22;48396;48.426;1.500;2022-11-23T00:44:13;10.10;97.90
62363;DHT22;48396;48.426;1.500;2022-11-23T00:46:39;10.20;97.80
62363;DHT22;48396;48.426;1.500;2022-11-23T00:49:05;10.20;97.70
62363;DHT22;48396;48.426;1.500;2022-11-23T00:51:33;10.10;97.70
62363;DHT22;48396;48.426;1.500;2022-11-23T00:54:02;10.00;98.10
62363;DHT22;48396;48.426;1.500;2022-11-23T00:56:30;10.00;98.20
62363;DHT22;48396;48.426;1.500;2022-11-23T00:58:57;9.90;98.40
62363;DHT22;48396;48.426;1.500;2022-11-23T01:01:26;9.80;98.60
62363;DHT22;48396;48.426;1.500;2022-11-23T01:03:55;9.70;98.70
62363;DHT22;48396;48.426;1.500;2022-11-23T01:06:29;9.60;99.10
62363;DHT22;48396;48.426;1.500;2022-11-23T01:08:59;9.70;99.10
62363;DHT22;48396;48.426;1.500;2022-11-23T01:11:29;9.70;98.90
62363;DHT22;48396;48.426;1.500;2022-11-23T01:13:56;9.70;99.00
62363;DHT22;48396;48.426;1.500;2022-11-23T01:16:24;9.60;99.20
62363;DHT22;48396;48.426;1.500;2022-11-23T01:18:58;9.60;99.20
62363;DHT22;48396;48.426;1.500;2022-11-23T01:21:26;9.60;99.30
62363;DHT22;48396;48.426;1.500;2022-11-23T01:23:52;9.70;99.20
62363;DHT22;48396;48.426;1.500;2022-11-23T01:26:18;9.70;99.10
62363;DHT22;48396;48.426;1.500;2022-11-23T01:28:44;9.70;99.00
62363;DHT22;48396;48.426;1.500;2022-11-23T01:31:18;9.70;99.10
62363;DHT22;48396;48.426;1.500;2022-11-23T01:33:44;9.60;99.10
62363;DHT22;48396;48.426;1.500;2022-11-23T01:36:15;9.70;99.00
62363;DHT22;48396;48.426;1.500;2022-11-23T01:38:42;9.70;99.00
62363;DHT22;48396;48.426;1.500;2022-11-23T01:41:13;9.50;99.40
62363;DHT22;48396;48.426;1.500;2022-11-23T01:43:39;9.50;99.70
62363;DHT22;48396;48.426;1.500;2022-11-23T01:46:05;9.60;99.50
62363;DHT22;48396;48.426;1.500;2022-11-23T01:51:05;9.60;99.80
62363;DHT22;48396;48.426;1.500;2022-11-23T01:53:33;9.70;99.80
62363;DHT22;48396;48.426;1.500;2022-11-23T01:56:02;9.80;99.50
62363;DHT22;48396;48.426;1.500;2022-11-23T01:58:32;9.80;99.70
62363;DHT22;48396;48.426;1.500;2022-11-23T02:01:03;9.70;99.90
62363;DHT22;48396;48.426;1.500;2022-11-23T02:03:29;9.60;99.90
62363;DHT22;48396;48.426;1.500;2022-11-23T02:06:00;9.50;99.90
62363;DHT22;48396;48.426;1.500;2022-11-23T02:08:28;9.70;99.90
62363;DHT22;48396;48.426;1.500;2022-11-23T02:10:57;9.70;99.90
62363;DHT22;48396;48.426;1.500;2022-11-23T02:13:25;9.80;99.90
62363;DHT22;48396;48.426;1.500;2022-11-23T02:15:53;9.90;99.90
62363;DHT22;48396;48.426;1.500;2022-11-23T02:18:22;9.90;99.90
62363;DHT22;48396;48.426;1.500;2022-11-23T02:20:49;9.80;99.90
62363;DHT22;48396;48.426;1.500;2022-11-23T02:23:41;9.90;99.90
62363;DHT22;48396;48.426;1.500;2022-11-23T02:26:21;9.90;99.90
62363;DHT22;48396;48.426;1.500;2022-11-23T02:29:18;10.00;99.90
62363;DHT22;48396;48.426;1.500;2022-11-23T02:31:42;9.90;99.90
62363;DHT22;48396;48.426;1.500;2022-11-23T02:34:08;9.90;99.90
62363;DHT22;48396;48.426;1.500;2022-11-23T02:36:35;9.80;99.90
62363;DHT22;48396;48.426;1.500;2022-11-23T02:39:13;9.70;99.90
62363;DHT22;48396;48.426;1.500;2022-11-23T02:41:48;9.70;99.90
62363;DHT22;48396;48.426;1.500;2022-11-23T02:46:52;9.80;99.90
62363;DHT22;48396;48.426;1.500;2022-11-23T02:49:18;10.00;99.90
62363;DHT22;48396;48.426;1.500;2022-11-23T02:51:44;10.00;99.90
62363;DHT22;48396;48.426;1.500;2022-11-23T02:54:09;10.10;99.90
62363;DHT22;48396;48.426;1.500;2022-11-23T02:56:35;10.10;99.80
62363;DHT22;48396;48.426;1.500;2022-11-23T02:59:01;10.10;99.90
62363;DHT22;48396;48.426;1.500;2022-11-23T03:01:27;10.00;99.90
62363;DHT22;48396;48.426;1.500;2022-11-23T03:03:53;10.10;99.90
62363;DHT22;48396;48.426;1.500;2022-11-23T03:06:19;10.00;99.90
62363;DHT22;48396;48.426;1.500;2022-11-23T03:08:45;9.90;99.90
62363;DHT22;48396;48.426;1.500;2022-11-23T03:11:10;10.00;99.90
62363;DHT22;48396;48.426;1.500;2022-11-23T03:13:36;9.90;99.90
62363;DHT22;48396;48.426;1.500;2022-11-23T03:16:02;9.80;99.90
62363;DHT22;48396;48.426;1.500;2022-11-23T03:18:28;9.70;99.90
62363;DHT22;48396;48.426;1.500;2022-11-23T03:20:54;9.70;99.90
62363;DHT22;48396;48.426;1.500;2022-11-23T03:23:19;9.80;99.90
62363;DHT22;48396;48.426;1.500;2022-11-23T03:25:57;9.80;99.90
62363;DHT22;48396;48.426;1.500;2022-11-23T03:28:23;9.70;99.90
62363;DHT22;48396;48.426;1.500;2022-11-23T03:30:49;10.00;99.90
62363;DHT22;48396;48.426;1.500;2022-11-23T03:33:15;10.00;99.90
62363;DHT22;48396;48.426;1.500;2022-11-23T03:35:42;9.90;99.90
62363;DHT22;48396;48.426;1.500;2022-11-23T03:38:07;9.80;99.90
62363;DHT22;48396;48.426;1.500;2022-11-23T03:40:33;9.90;99.90
62363;DHT22;48396;48.426;1.500;2022-11-23T03:42:59;10.10;99.90
62363;DHT22;48396;48.426;1.500;2022-11-23T03:45:25;10.00;99.90
62363;DHT22;48396;48.426;1.500;2022-11-23T03:47:51;9.80;99.90
62363;DHT22;48396;48.426;1.500;2022-11-23T03:50:16;9.70;99.90
62363;DHT22;48396;48.426;1.500;2022-11-23T03:52:42;9.60;99.90
62363;DHT22;48396;48.426;1.500;2022-11-23T03:55:08;9.70;99.90
62363;DHT22;48396;48.426;1.500;2022-11-23T03:57:34;9.70;99.90
62363;DHT22;48396;48.426;1.500;2022-11-23T04:00:00;9.70;99.90
62363;DHT22;48396;48.426;1.500;2022-11-23T04:02:26;9.70;99.90
62363;DHT22;48396;48.426;1.500;2022-11-23T04:04:52;9.60;99.90
62363;DHT22;48396;48.426;1.500;2022-11-23T04:07:18;9.80;99.90
62363;DHT22;48396;48.426;1.500;2022-11-23T04:09:44;10.00;99.90
62363;DHT22;48396;48.426;1.500;2022-11-23T04:12:09;10.10;99.90
62363;DHT22;48396;48.426;1.500;2022-11-23T04:14:35;10.10;99.90
62363;DHT22;48396;48.426;1.500;2022-11-23T04:17:01;10.10;99.90
62363;DHT22;48396;48.426;1.500;2022-11-23T04:19:28;10.20;99.90
62363;DHT22;48396;48.426;1.500;2022-11-23T04:21:53;10.10;99.90
62363;DHT22;48396;48.426;1.500;2022-11-23T04:24:19;10.10;99.90
62363;DHT22;48396;48.426;1.500;2022-11-23T04:26:45;10.30;99.90
62363;DHT22;48396;48.426;1.500;2022-11-23T04:29:11;10.20;99.90
62363;DHT22;48396;48.426;1.500;2022-11-23T04:31:37;10.20;99.90
62363;DHT22;48396;48.426;1.500;2022-11-23T04:34:03;10.10;99.90
62363;DHT22;48396;48.426;1.500;2022-11-23T04:36:28;10.00;99.90
62363;DHT22;48396;48.426;1.500;2022-11-23T04:38:54;10.10;99.90
62363;DHT22;48396;48.426;1.500;2022-11-23T04:41:20;10.20;99.90
62363;DHT22;48396;48.426;1.500;2022-11-23T04:43:47;10.20;99.90
62363;DHT22;48396;48.426;1.500;2022-11-23T04:46:13;10.20;99.90
62363;DHT22;48396;48.426;1.500;2022-11-23T04:48:39;10.00;99.90
62363;DHT22;48396;48.426;1.500;2022-11-23T04:51:05;10.10;99.90
62363;DHT22;48396;48.426;1.500;2022-11-23T04:53:30;10.10;99.90
62363;DHT22;48396;48.426;1.500;2022-11-23T04:55:56;10.20;99.90
62363;DHT22;48396;48.426;1.500;2022-11-23T04:58:22;10.20;99.90
62363;DHT22;48396;48.426;1.500;2022-11-23T05:00:48;10.30;99.90
62363;DHT22;48396;48.426;1.500;2022-11-23T05:03:14;10.20;99.90
62363;DHT22;48396;48.426;1.500;2022-11-23T05:05:40;10.20;99.90
62363;DHT22;48396;48.426;1.500;2022-11-23T05:08:06;10.30;99.90
62363;DHT22;48396;48.426;1.500;2022-11-23T05:10:33;10.30;99.90
62363;DHT22;48396;48.426;1.500;2022-11-23T05:12:59;10.30;99.90
62363;DHT22;48396;48.426;1.500;2022-11-23T05:15:25;10.30;99.90
62363;DHT22;48396;48.426;1.500;2022-11-23T05:17:51;10.20;99.90
62363;DHT22;48396;48.426;1.500;2022-11-23T05:20:17;10.20;99.90
62363;DHT22;48396;48.426;1.500;2022-11-23T05:22:43;10.30;99.90
62363;DHT22;48396;48.426;1.500;2022-11-23T05:25:09;10.20;99.90
62363;DHT22;48396;48.426;1.500;2022-11-23T05:27:35;10.20;99.90
62363;DHT22;48396;48.426;1.500;2022-11-23T05:30:01;10.10;99.90
62363;DHT22;48396;48.426;1.500;2022-11-23T05:32:27;10.10;99.90
62363;DHT22;48396;48.426;1.500;2022-11-23T05:34:53;10.30;99.90
62363;DHT22;48396;48.426;1.500;2022-11-23T05:37:18;10.30;99.90
62363;DHT22;48396;48.426;1.500;2022-11-23T05:39:44;10.30;99.90
62363;DHT22;48396;48.426;1.500;2022-11-23T05:42:10;10.20;99.90
62363;DHT22;48396;48.426;1.500;2022-11-23T05:44:35;10.30;99.90
62363;DHT22;48396;48.426;1.500;2022-11-23T05:47:01;10.20;99.90
62363;DHT22;48396;48.426;1.500;2022-11-23T05:49:27;10.30;99.90
62363;DHT22;48396;48.426;1.500;2022-11-23T05:51:53;10.30;99.90
62363;DHT22;48396;48.426;1.500;2022-11-23T05:54:19;10.30;99.90
62363;DHT22;48396;48.426;1.500;2022-11-23T05:56:44;10.20;99.90
62363;DHT22;48396;48.426;1.500;2022-11-23T05:59:10;10.30;99.90
62363;DHT22;48396;48.426;1.500;2022-11-23T06:01:36;10.40;99.90
62363;DHT22;48396;48.426;1.500;2022-11-23T06:04:02;10.30;99.90
62363;DHT22;48396;48.426;1.500;2022-11-23T06:06:30;10.20;99.90
62363;DHT22;48396;48.426;1.500;2022-11-23T06:08:56;10.20;99.90
62363;DHT22;48396;48.426;1.500;2022-11-23T06:11:22;10.10;99.90
62363;DHT22;48396;48.426;1.500;2022-11-23T06:13:48;10.00;99.90
62363;DHT22;48396;48.426;1.500;2022-11-23T06:16:14;10.00;99.90
62363;DHT22;48396;48.426;1.500;2022-11-23T06:18:40;9.90;99.90
62363;DHT22;48396;48.426;1.500;2022-11-23T06:21:06;10.10;99.90
62363;DHT22;48396;48.426;1.500;2022-11-23T06:23:32;10.00;99.90
62363;DHT22;48396;48.426;1.500;2022-11-23T06:26:01;10.00;99.90
62363;DHT22;48396;48.426;1.500;2022-11-23T06:28:27;10.10;99.90
62363;DHT22;48396;48.426;1.500;2022-11-23T06:30:54;10.20;99.90
62363;DHT22;48396;48.426;1.500;2022-11-23T06:33:20;10.30;99.90
62363;DHT22;48396;48.426;1.500;2022-11-23T06:35:54;10.20;99.90
62363;DHT22;48396;48.426;1.500;2022-11-23T06:38:20;10.20;99.90
62363;DHT22;48396;48.426;1.500;2022-11-23T06:40:46;10.20;99.90
62363;DHT22;48396;48.426;1.500;2022-11-23T06:43:12;10.30;99.90
62363;DHT22;48396;48.426;1.500;2022-11-23T06:45:37;10.20;99.90
62363;DHT22;48396;48.426;1.500;2022-11-23T06:48:03;10.20;99.90
62363;DHT22;48396;48.426;1.500;2022-11-23T06:50:29;10.20;99.90
62363;DHT22;48396;48.426;1.500;2022-11-23T06:52:56;10.20;99.90
62363;DHT22;48396;48.426;1.500;2022-11-23T06:55:23;10.10;99.90
62363;DHT22;48396;48.426;1.500;2022-11-23T06:57:49;10.00;99.90
62363;DHT22;48396;48.426;1.500;2022-11-23T07:00:16;10.10;99.90
62363;DHT22;48396;48.426;1.500;2022-11-23T07:02:42;10.10;99.90
62363;DHT22;48396;48.426;1.500;2022-11-23T07:05:09;10.20;99.90
62363;DHT22;48396;48.426;1.500;2022-11-23T07:07:34;10.20;99.90
62363;DHT22;48396;48.426;1.500;2022-11-23T07:10:00;10.30;99.90
62363;DHT22;48396;48.426;1.500;2022-11-23T07:12:26;10.30;99.90
62363;DHT22;48396;48.426;1.500;2022-11-23T07:14:52;10.30;99.90
62363;DHT22;48396;48.426;1.500;2022-11-23T07:17:17;10.30;99.90
62363;DHT22;48396;48.426;1.500;2022-11-23T07:19:43;10.40;99.90
62363;DHT22;48396;48.426;1.500;2022-11-23T07:22:09;10.30;99.90
62363;DHT22;48396;48.426;1.500;2022-11-23T07:24:35;10.40;99.90
62363;DHT22;48396;48.426;1.500;2022-11-23T07:27:00;10.40;99.90
62363;DHT22;48396;48.426;1.500;2022-11-23T07:29:26;10.50;99.90
62363;DHT22;48396;48.426;1.500;2022-11-23T07:31:52;10.40;99.90
62363;DHT22;48396;48.426;1.500;2022-11-23T07:34:17;10.40;99.90
62363;DHT22;48396;48.426;1.500;2022-11-23T07:36:43;10.50;99.90
62363;DHT22;48396;48.426;1.500;2022-11-23T07:39:09;10.60;99.90
62363;DHT22;48396;48.426;1.500;2022-11-23T07:41:35;10.50;99.90
62363;DHT22;48396;48.426;1.500;2022-11-23T07:44:01;10.40;99.90
62363;DHT22;48396;48.426;1.500;2022-11-23T07:46:27;10.30;99.90
62363;DHT22;48396;48.426;1.500;2022-11-23T07:48:53;10.30;99.90
62363;DHT22;48396;48.426;1.500;2022-11-23T07:51:25;10.30;99.90
62363;DHT22;48396;48.426;1.500;2022-11-23T07:53:51;10.40;99.90
62363;DHT22;48396;48.426;1.500;2022-11-23T07:56:17;10.40;99.90
62363;DHT22;48396;48.426;1.500;2022-11-23T07:58:42;10.40;99.90
62363;DHT22;48396;48.426;1.500;2022-11-23T08:01:08;10.30;99.90
62363;DHT22;48396;48.426;1.500;2022-11-23T08:03:35;10.40;99.90
62363;DHT22;48396;48.426;1.500;2022-11-23T08:06:01;10.40;99.90
62363;DHT22;48396;48.426;1.500;2022-11-23T08:08:27;10.40;99.90
62363;DHT22;48396;48.426;1.500;2022-11-23T08:10:52;10.50;99.90
62363;DHT22;48396;48.426;1.500;2022-11-23T08:13:18;10.50;99.90
62363;DHT22;48396;48.426;1.500;2022-11-23T08:15:44;10.40;99.90
62363;DHT22;48396;48.426;1.500;2022-11-23T08:18:10;10.20;99.90
62363;DHT22;48396;48.426;1.500;2022-11-23T08:20:36;10.10;99.90
62363;DHT22;48396;48.426;1.500;2022-11-23T08:23:01;10.10;99.90
62363;DHT22;48396;48.426;1.500;2022-11-23T08:25:28;10.10;99.90
62363;DHT22;48396;48.426;1.500;2022-11-23T08:27:59;10.20;99.90
62363;DHT22;48396;48.426;1.500;2022-11-23T08:30:27;10.20;99.90
62363;DHT22;48396;48.426;1.500;2022-11-23T08:32:53;10.20;99.90
62363;DHT22;48396;48.426;1.500;2022-11-23T08:35:19;10.20;99.90
62363;DHT22;48396;48.426;1.500;2022-11-23T08:37:45;10.20;99.90
62363;DHT22;48396;48.426;1.500;2022-11-23T08:40:11;10.20;99.90
62363;DHT22;48396;48.426;1.500;2022-11-23T08:42:37;10.30;99.90
62363;DHT22;48396;48.426;1.500;2022-11-23T08:45:03;10.30;99.90
62363;DHT22;48396;48.426;1.500;2022-11-23T08:47:33;10.30;99.90
62363;DHT22;48396;48.426;1.500;2022-11-23T08:49:59;10.20;99.90
62363;DHT22;48396;48.426;1.500;2022-11-23T08:52:25;10.20;99.90
62363;DHT22;48396;48.426;1.500;2022-11-23T08:54:51;10.30;99.90
62363;DHT22;48396;48.426;1.500;2022-11-23T08:57:17;10.30;99.90
62363;DHT22;48396;48.426;1.500;2022-11-23T08:59:43;10.10;99.90
62363;DHT22;48396;48.426;1.500;2022-11-23T09:02:12;10.20;99.90
62363;DHT22;48396;48.426;1.500;2022-11-23T09:04:40;10.20;99.90
62363;DHT22;48396;48.426;1.500;2022-11-23T09:07:06;10.20;99.90
62363;DHT22;48396;48.426;1.500;2022-11-23T09:09:32;10.30;99.90
62363;DHT22;48396;48.426;1.500;2022-11-23T09:11:58;10.40;99.90
62363;DHT22;48396;48.426;1.500;2022-11-23T09:14:24;10.40;99.90
62363;DHT22;48396;48.426;1.500;2022-11-23T09:16:52;10.30;99.90
62363;DHT22;48396;48.426;1.500;2022-11-23T09:19:18;10.40;99.90
62363;DHT22;48396;48.426;1.500;2022-11-23T09:21:44;10.30;99.90
62363;DHT22;48396;48.426;1.500;2022-11-23T09:24:10;10.20;99.90
62363;DHT22;48396;48.426;1.500;2022-11-23T09:26:37;10.20;99.90
62363;DHT22;48396;48.426;1.500;2022-11-23T09:29:06;10.20;99.90
62363;DHT22;48396;48.426;1.500;2022-11-23T09:31:35;10.30;99.90
62363;DHT22;48396;48.426;1.500;2022-11-23T09:34:01;10.20;99.90
62363;DHT22;48396;48.426;1.500;2022-11-23T09:36:27;10.30;99.90
62363;DHT22;48396;48.426;1.500;2022-11-23T09:38:54;10.40;99.90
62363;DHT22;48396;48.426;1.500;2022-11-23T09:47:40;10.60;99.90
62363;DHT22;48396;48.426;1.500;2022-11-23T09:52:49;10.50;99.90
62363;DHT22;48396;48.426;1.500;2022-11-23T09:55:32;10.70;99.90
62363;DHT22;48396;48.426;1.500;2022-11-23T09:58:04;10.80;99.90
62363;DHT22;48396;48.426;1.500;2022-11-23T10:00:45;10.80;99.90
62363;DHT22;48396;48.426;1.500;2022-11-23T10:03:16;10.80;99.90
62363;DHT22;48396;48.426;1.500;2022-11-23T10:06:03;10.80;99.90
62363;DHT22;48396;48.426;1.500;2022-11-23T10:08:40;10.80;99.90
62363;DHT22;48396;48.426;1.500;2022-11-23T10:22:58;10.60;99.90
62363;DHT22;48396;48.426;1.500;2022-11-23T10:25:25;10.70;99.90
62363;DHT22;48396;48.426;1.500;2022-11-23T10:27:59;10.70;99.90
62363;DHT22;48396;48.426;1.500;2022-11-23T10:30:27;10.60;99.90
62363;DHT22;48396;48.426;1.500;2022-11-23T10:32:58;10.50;99.90
62363;DHT22;48396;48.426;1.500;2022-11-23T10:35:26;10.50;99.90
62363;DHT22;48396;48.426;1.500;2022-11-23T10:40:40;10.50;99.90
62363;DHT22;48396;48.426;1.500;2022-11-23T10:43:17;10.70;99.90
62363;DHT22;48396;48.426;1.500;2022-11-23T10:45:45;10.70;99.90
62363;DHT22;48396;48.426;1.500;2022-11-23T10:48:34;10.80;99.90
62363;DHT22;48396;48.426;1.500;2022-11-23T10:51:28;10.80;99.90
62363;DHT22;48396;48.426;1.500;2022-11-23T10:54:01;11.00;99.90
62363;DHT22;48396;48.426;1.500;2022-11-23T10:56:28;11.10;99.90
62363;DHT22;48396;48.426;1.500;2022-11-23T10:58:55;11.20;99.90
62363;DHT22;48396;48.426;1.500;2022-11-23T11:01:23;11.30;99.90
62363;DHT22;48396;48.426;1.500;2022-11-23T11:04:01;11.40;99.90
62363;DHT22;48396;48.426;1.500;2022-11-23T11:06:31;11.50;99.90
62363;DHT22;48396;48.426;1.500;2022-11-23T11:09:01;11.60;99.90
62363;DHT22;48396;48.426;1.500;2022-11-23T11:11:33;11.70;99.90
62363;DHT22;48396;48.426;1.500;2022-11-23T11:14:13;11.80;99.90
62363;DHT22;48396;48.426;1.500;2022-11-23T11:16:50;11.70;99.90
62363;DHT22;48396;48.426;1.500;2022-11-23T11:19:26;11.70;99.90
62363;DHT22;48396;48.426;1.500;2022-11-23T11:21:53;11.80;99.90
62363;DHT22;48396;48.426;1.500;2022-11-23T11:24:41;11.80;99.90
62363;DHT22;48396;48.426;1.500;2022-11-23T11:27:18;11.90;99.90
62363;DHT22;48396;48.426;1.500;2022-11-23T11:32:27;12.00;99.90
62363;DHT22;48396;48.426;1.500;2022-11-23T11:37:50;12.20;99.90
62363;DHT22;48396;48.426;1.500;2022-11-23T11:42:55;12.30;99.90
62363;DHT22;48396;48.426;1.500;2022-11-23T11:45:30;12.30;99.90
62363;DHT22;48396;48.426;1.500;2022-11-23T11:50:41;12.50;99.90
62363;DHT22;48396;48.426;1.500;2022-11-23T11:53:16;12.50;99.90
62363;DHT22;48396;48.426;1.500;2022-11-23T11:55:51;12.60;99.90
62363;DHT22;48396;48.426;1.500;2022-11-23T11:58:20;12.60;99.90
62363;DHT22;48396;48.426;1.500;2022-11-23T12:00:47;12.60;99.90
62363;DHT22;48396;48.426;1.500;2022-11-23T12:06:42;12.80;99.90
62363;DHT22;48396;48.426;1.500;2022-11-23T12:09:21;12.70;99.90
62363;DHT22;48396;48.426;1.500;2022-11-23T12:11:48;12.70;99.90
62363;DHT22;48396;48.426;1.500;2022-11-23T12:14:14;12.60;99.90
62363;DHT22;48396;48.426;1.500;2022-11-23T12:19:58;12.60;99.90
62363;DHT22;48396;48.426;1.500;2022-11-23T12:22:54;12.60;99.90
62363;DHT22;48396;48.426;1.500;2022-11-23T12:25:36;12.60;99.90
62363;DHT22;48396;48.426;1.500;2022-11-23T12:30:57;12.70;99.90
62363;DHT22;48396;48.426;1.500;2022-11-23T12:36:17;12.80;99.90
62363;DHT22;48396;48.426;1.500;2022-11-23T12:42:02;12.80;99.90
62363;DHT22;48396;48.426;1.500;2022-11-23T12:49:55;13.00;99.90
62363;DHT22;48396;48.426;1.500;2022-11-23T12:55:05;13.30;99.90
62363;DHT22;48396;48.426;1.500;2022-11-23T12:57:45;13.40;99.90
62363;DHT22;48396;48.426;1.500;2022-11-23T13:00:19;13.40;98.80
62363;DHT22;48396;48.426;1.500;2022-11-23T13:11:53;13.40;96.70
62363;DHT22;48396;48.426;1.500;2022-11-23T13:14:41;13.40;95.90
62363;DHT22;48396;48.426;1.500;2022-11-23T13:22:21;13.40;95.60
62363;DHT22;48396;48.426;1.500;2022-11-23T13:30:24;13.60;94.70
62363;DHT22;48396;48.426;1.500;2022-11-23T13:33:01;13.50;94.90
62363;DHT22;48396;48.426;1.500;2022-11-23T13:40:32;13.60;94.30
62363;DHT22;48396;48.426;1.500;2022-11-23T13:43:17;13.70;94.60
62363;DHT22;48396;48.426;1.500;2022-11-23T13:45:44;13.70;94.40
62363;DHT22;48396;48.426;1.500;2022-11-23T13:53:24;13.80;93.10
62363;DHT22;48396;48.426;1.500;2022-11-23T13:55:53;13.80;93.70
62363;DHT22;48396;48.426;1.500;2022-11-23T14:00:55;13.90;93.90
62363;DHT22;48396;48.426;1.500;2022-11-23T14:03:49;13.80;93.10
62363;DHT22;48396;48.426;1.500;2022-11-23T14:11:51;13.90;92.80
62363;DHT22;48396;48.426;1.500;2022-11-23T14:14:23;14.00;92.40
62363;DHT22;48396;48.426;1.500;2022-11-23T14:20:14;14.00;91.70
62363;DHT22;48396;48.426;1.500;2022-11-23T14:34:07;13.70;92.80
62363;DHT22;48396;48.426;1.500;2022-11-23T14:37:09;13.70;92.80
62363;DHT22;48396;48.426;1.500;2022-11-23T14:42:24;13.80;93.60
62363;DHT22;48396;48.426;1.500;2022-11-23T14:44:51;13.80;93.70
62363;DHT22;48396;48.426;1.500;2022-11-23T14:47:26;13.90;93.90
62363;DHT22;48396;48.426;1.500;2022-11-23T14:49:55;13.90;93.70
62363;DHT22;48396;48.426;1.500;2022-11-23T14:52:30;14.00;94.10
62363;DHT22;48396;48.426;1.500;2022-11-23T14:55:00;14.20;93.80
62363;DHT22;48396;48.426;1.500;2022-11-23T14:57:57;14.30;93.30
62363;DHT22;48396;48.426;1.500;2022-11-23T15:00:38;14.30;93.00
62363;DHT22;48396;48.426;1.500;2022-11-23T15:03:16;14.30;93.10
62363;DHT22;48396;48.426;1.500;2022-11-23T15:05:55;14.40;93.10
62363;DHT22;48396;48.426;1.500;2022-11-23T15:08:29;14.30;92.90
62363;DHT22;48396;48.426;1.500;2022-11-23T15:11:16;14.10;93.10
62363;DHT22;48396;48.426;1.500;2022-11-23T15:13:49;14.20;93.40
62363;DHT22;48396;48.426;1.500;2022-11-23T15:16:18;14.10;93.10
62363;DHT22;48396;48.426;1.500;2022-11-23T15:18:44;14.20;93.00
62363;DHT22;48396;48.426;1.500;2022-11-23T15:23:44;14.00;93.20
62363;DHT22;48396;48.426;1.500;2022-11-23T15:26:17;14.10;93.10
62363;DHT22;48396;48.426;1.500;2022-11-23T15:28:43;14.10;92.70
62363;DHT22;48396;48.426;1.500;2022-11-23T15:31:35;14.00;92.80
62363;DHT22;48396;48.426;1.500;2022-11-23T15:34:11;14.10;93.10
62363;DHT22;48396;48.426;1.500;2022-11-23T15:36:39;14.10;92.90
62363;DHT22;48396;48.426;1.500;2022-11-23T15:39:05;14.10;93.10
62363;DHT22;48396;48.426;1.500;2022-11-23T15:41:34;14.10;93.10
62363;DHT22;48396;48.426;1.500;2022-11-23T15:44:00;14.00;93.10
62363;DHT22;48396;48.426;1.500;2022-11-23T15:46:28;13.80;93.30
62363;DHT22;48396;48.426;1.500;2022-11-23T15:49:00;13.80;93.50
62363;DHT22;48396;48.426;1.500;2022-11-23T15:51:47;14.00;93.30
62363;DHT22;48396;48.426;1.500;2022-11-23T15:54:20;13.80;93.00
62363;DHT22;48396;48.426;1.500;2022-11-23T15:56:48;13.70;93.30
62363;DHT22;48396;48.426;1.500;2022-11-23T16:02:04;13.60;93.00
62363;DHT22;48396;48.426;1.500;2022-11-23T16:04:35;13.60;93.00
62363;DHT22;48396;48.426;1.500;2022-11-23T16:07:21;13.60;93.00
62363;DHT22;48396;48.426;1.500;2022-11-23T16:12:30;13.50;93.10
62363;DHT22;48396;48.426;1.500;2022-11-23T16:15:28;13.40;93.00
62363;DHT22;48396;48.426;1.500;2022-11-23T16:17:47;13.40;93.20
62363;DHT22;48396;48.426;1.500;2022-11-23T16:20:14;13.30;93.20
62363;DHT22;48396;48.426;1.500;2022-11-23T16:22:47;13.50;93.00
62363;DHT22;48396;48.426;1.500;2022-11-23T16:28:00;13.30;93.10
62363;DHT22;48396;48.426;1.500;2022-11-23T16:30:34;13.20;93.30
62363;DHT22;48396;48.426;1.500;2022-11-23T16:33:00;13.20;93.40
62363;DHT22;48396;48.426;1.500;2022-11-23T16:35:26;13.20;93.40
62363;DHT22;48396;48.426;1.500;2022-11-23T16:37:52;13.20;93.60
62363;DHT22;48396;48.426;1.500;2022-11-23T16:40:18;13.20;93.40
62363;DHT22;48396;48.426;1.500;2022-11-23T16:42:44;13.20;93.40
62363;DHT22;48396;48.426;1.500;2022-11-23T16:45:11;13.30;93.70
62363;DHT22;48396;48.426;1.500;2022-11-23T16:47:51;13.10;93.80
62363;DHT22;48396;48.426;1.500;2022-11-23T16:50:18;13.20;94.00
62363;DHT22;48396;48.426;1.500;2022-11-23T16:52:43;13.20;93.90
62363;DHT22;48396;48.426;1.500;2022-11-23T16:55:10;13.10;94.10
62363;DHT22;48396;48.426;1.500;2022-11-23T16:57:37;13.00;94.40
62363;DHT22;48396;48.426;1.500;2022-11-23T17:00:06;13.00;94.30
62363;DHT22;48396;48.426;1.500;2022-11-23T17:02:32;13.10;94.30
62363;DHT22;48396;48.426;1.500;2022-11-23T17:04:58;12.90;94.60
62363;DHT22;48396;48.426;1.500;2022-11-23T17:07:24;12.90;94.70
62363;DHT22;48396;48.426;1.500;2022-11-23T17:09:49;12.80;94.80
62363;DHT22;48396;48.426;1.500;2022-11-23T17:12:17;12.70;95.00
62363;DHT22;48396;48.426;1.500;2022-11-23T17:14:46;12.50;95.40
62363;DHT22;48396;48.426;1.500;2022-11-23T17:17:22;12.40;95.80
62363;DHT22;48396;48.426;1.500;2022-11-23T17:19:49;12.30;96.00
62363;DHT22;48396;48.426;1.500;2022-11-23T17:22:16;12.30;95.90
62363;DHT22;48396;48.426;1.500;2022-11-23T17:24:43;12.30;96.00
62363;DHT22;48396;48.426;1.500;2022-11-23T17:27:13;12.20;96.20
62363;DHT22;48396;48.426;1.500;2022-11-23T17:29:41;12.20;96.40
62363;DHT22;48396;48.426;1.500;2022-11-23T17:32:12;12.40;96.00
62363;DHT22;48396;48.426;1.500;2022-11-23T17:34:39;12.30;96.10
62363;DHT22;48396;48.426;1.500;2022-11-23T17:37:05;12.40;96.00
62363;DHT22;48396;48.426;1.500;2022-11-23T17:39:35;12.30;96.10
62363;DHT22;48396;48.426;1.500;2022-11-23T17:42:00;12.40;96.00
62363;DHT22;48396;48.426;1.500;2022-11-23T17:44:26;12.40;96.10
62363;DHT22;48396;48.426;1.500;2022-11-23T17:46:53;12.40;96.20
62363;DHT22;48396;48.426;1.500;2022-11-23T17:49:20;12.40;96.20
62363;DHT22;48396;48.426;1.500;2022-11-23T17:51:51;12.30;96.40